CheckWX is a tool to help pilots better visualize weather data.  It is not intended as a substitute for an official pre-flight weather briefing.

16:55:47 UTC

KWMC TAF
Winnemucca Municipal Airport
Winnemucca, Nevada, USA
KWMC 181426Z 1814/1912 29007KT P6SM SCT250 FM190500 VRB06KT P6SM SKC

Jun-18@
14:00 UTC

Jun-18 @ 14:00 UTC

Jun-19@
05:00 UTC

Jun-19 @ 05:00 UTC

KWMC 181426Z 1814/1912 29007KT P6SM SCT250
Wind
  • 290° at 7 KTS
Cloud Levels
  • Scattered at 25,000' AGL

Jun-19@
05:00 UTC

Jun-19 @ 05:00 UTC

Jun-19@
12:00 UTC

Jun-19 @ 12:00 UTC

FM190500 VRB06KT P6SM SKC

From

From Standard forecast or significant change

Wind
  • Variable at 6 KTS
Cloud Levels
  • Clear skies